createdAt,value
2023-04-26T04:48:51.345Z,45.60
2023-04-26T05:06:12.615Z,39.50
2023-04-26T05:08:43.337Z,43.33
2023-04-26T05:11:13.475Z,39.47
2023-04-26T05:13:43.753Z,39.63
2023-04-26T05:16:13.892Z,41.88
2023-04-26T05:18:43.782Z,42.95
2023-04-26T05:23:43.270Z,44.00
2023-04-26T05:26:20.078Z,36.10
2023-04-26T05:28:50.136Z,37.53
2023-04-26T05:31:21.059Z,38.97
2023-04-26T05:33:56.683Z,38.72
2023-04-26T05:36:29.157Z,37.00
2023-04-26T05:38:59.800Z,25.05
2023-04-26T05:43:59.379Z,28.10
2023-04-26T05:46:29.513Z,23.60
2023-04-26T05:49:00.315Z,25.27
2023-04-26T05:51:31.102Z,23.65
2023-04-26T05:54:01.232Z,25.52
2023-04-26T05:56:31.475Z,20.85
2023-04-26T05:59:01.542Z,19.15
2023-04-26T06:01:31.286Z,21.17
2023-04-26T06:04:02.157Z,17.52
2023-04-26T06:06:40.027Z,15.05
2023-04-26T06:09:10.403Z,18.83
2023-04-26T06:11:42.044Z,16.67
2023-04-26T06:14:23.085Z,18.08
2023-04-26T06:16:53.702Z,19.80
2023-04-26T06:19:24.022Z,16.65
2023-04-26T06:21:56.776Z,11.90
2023-04-26T06:24:29.583Z,13.55
2023-04-26T06:26:59.750Z,18.42
2023-04-26T06:29:30.659Z,17.42
2023-04-26T06:32:00.794Z,15.75
2023-04-26T06:34:32.115Z,17.02
2023-04-26T06:37:02.525Z,21.67
2023-04-26T06:39:32.764Z,21.83
2023-04-26T06:42:03.717Z,23.73
2023-04-26T06:44:34.606Z,22.77
2023-04-26T06:47:05.369Z,23.15
2023-04-26T06:49:35.460Z,22.40
2023-04-26T06:52:05.449Z,24.25
2023-04-26T06:54:46.298Z,23.67
2023-04-26T06:57:24.362Z,23.85
2023-04-26T06:59:54.813Z,25.25
2023-04-26T07:02:26.165Z,24.15
2023-04-26T07:04:59.380Z,24.27
2023-04-26T07:07:29.750Z,26.23
2023-04-26T07:10:01.986Z,23.60
2023-04-26T07:12:32.747Z,23.63
2023-04-26T07:15:05.422Z,22.65
2023-04-26T07:17:38.659Z,24.23
2023-04-26T07:20:09.633Z,24.50
2023-04-26T07:22:39.888Z,25.83
2023-04-26T07:25:10.168Z,22.90
2023-04-26T07:27:40.698Z,23.85
2023-04-26T07:30:12.666Z,21.90
2023-04-26T07:32:46.689Z,20.35
2023-04-26T07:35:26.407Z,23.27
2023-04-26T07:42:58.411Z,19.70
2023-04-26T07:45:29.105Z,22.52
2023-04-26T07:48:02.228Z,21.98
2023-04-26T07:50:33.301Z,21.85
2023-04-26T07:53:03.547Z,20.10
2023-04-26T07:55:33.774Z,20.48
2023-04-26T07:58:04.123Z,23.13
2023-04-26T08:00:34.839Z,23.00
2023-04-26T08:03:08.179Z,28.15
2023-04-26T08:05:38.685Z,26.20
2023-04-26T08:08:09.469Z,32.13
2023-04-26T08:10:42.442Z,34.15
2023-04-26T08:13:12.693Z,37.58
2023-04-26T08:15:43.036Z,36.13
2023-04-26T08:18:14.542Z,37.45
2023-04-26T08:20:47.935Z,39.58
2023-04-26T08:23:22.150Z,38.53
2023-04-26T08:25:52.579Z,35.95
2023-04-26T08:28:23.409Z,36.63
2023-04-26T08:30:54.034Z,36.00
2023-04-26T08:33:25.353Z,39.50
2023-04-26T08:35:55.782Z,40.95
2023-04-26T08:38:27.688Z,36.95
2023-04-26T08:41:02.188Z,38.17
2023-04-26T08:43:35.571Z,38.22
2023-04-26T08:46:10.462Z,38.55
2023-04-26T08:48:40.902Z,37.42
2023-04-26T08:51:16.472Z,35.88
2023-04-26T08:53:47.773Z,36.13
2023-04-26T08:56:18.462Z,34.10
2023-04-26T08:58:48.790Z,33.20
2023-04-26T09:01:19.771Z,34.53
2023-04-26T09:03:54.999Z,32.35
2023-04-26T09:06:26.923Z,32.83
2023-04-26T09:08:58.599Z,31.88
2023-04-26T09:11:33.326Z,30.58
2023-04-26T09:14:04.195Z,32.28
2023-04-26T09:16:41.139Z,28.80
2023-04-26T09:19:12.497Z,33.58
2023-04-26T09:21:49.372Z,33.10
2023-04-26T09:24:23.148Z,31.40
2023-04-26T09:27:07.620Z,30.33
2023-04-26T09:29:39.240Z,32.10
2023-04-26T09:32:10.906Z,33.47
2023-04-26T09:34:48.736Z,32.17
2023-04-26T09:37:19.055Z,32.30
2023-04-26T09:39:49.725Z,31.10
2023-04-26T09:42:21.641Z,31.83
2023-04-26T09:44:53.479Z,32.70
2023-04-26T09:47:25.756Z,33.05
2023-04-26T09:49:56.108Z,34.03
2023-04-26T09:52:26.988Z,35.15
2023-04-26T09:54:58.006Z,36.80
2023-04-26T09:57:28.436Z,36.10
2023-04-26T09:59:59.075Z,34.38
2023-04-26T10:02:31.865Z,35.00
2023-04-26T10:05:06.285Z,34.65
2023-04-26T10:07:36.629Z,36.10
2023-04-26T10:10:08.274Z,36.20
2023-04-26T10:12:39.710Z,36.42
2023-04-26T10:15:12.932Z,34.58
2023-04-26T10:17:44.239Z,38.08
2023-04-26T10:20:20.284Z,33.40
2023-04-26T10:22:56.686Z,39.20
2023-04-26T10:25:41.120Z,42.67
2023-04-26T10:28:11.728Z,38.63
2023-04-26T10:30:58.647Z,36.33
2023-04-26T10:33:29.799Z,37.28
2023-04-26T10:36:16.937Z,35.60
2023-04-26T10:39:34.243Z,38.03
2023-04-26T10:42:27.252Z,36.55
2023-04-26T10:45:00.479Z,37.67
2023-04-26T10:47:39.211Z,37.03
2023-04-26T10:50:14.006Z,36.25
2023-04-26T10:53:08.469Z,36.08
2023-04-26T10:55:43.763Z,35.78
2023-04-26T10:58:37.741Z,35.17
2023-04-26T11:01:13.661Z,39.25
2023-04-26T11:04:10.484Z,39.85
2023-04-26T11:07:01.586Z,37.67
2023-04-26T11:09:45.303Z,40.70
2023-04-26T11:12:18.764Z,41.78
2023-04-26T11:14:55.924Z,41.30
2023-04-26T11:17:29.160Z,39.55
2023-04-26T11:19:59.197Z,40.72
2023-04-26T11:22:30.334Z,41.05
2023-04-26T11:25:02.289Z,40.17
2023-04-26T11:27:32.422Z,42.53
2023-04-26T11:30:08.569Z,44.25
2023-04-26T11:32:41.601Z,45.20
2023-04-26T11:35:12.252Z,42.92
2023-04-26T11:37:42.846Z,42.30
2023-04-26T11:40:18.495Z,42.25
2023-04-26T11:42:49.457Z,43.90
2023-04-26T11:45:19.807Z,43.88
2023-04-26T11:47:51.031Z,42.67
2023-04-26T11:50:24.523Z,44.58
2023-04-26T11:53:02.411Z,43.03
2023-04-26T11:55:34.737Z,41.80
2023-04-26T11:58:16.781Z,45.65
2023-04-26T12:01:06.357Z,40.20
2023-04-26T12:03:39.342Z,41.55
2023-04-26T12:06:09.517Z,41.13
2023-04-26T12:08:40.053Z,40.08
2023-04-26T12:11:11.432Z,44.38
2023-04-26T12:13:43.036Z,44.97
2023-04-26T12:16:25.649Z,45.55
2023-04-26T12:19:00.067Z,42.75
2023-04-26T12:21:30.977Z,42.00
2023-04-26T12:24:01.726Z,43.17
2023-04-26T12:26:47.562Z,46.22
2023-04-26T12:29:18.075Z,44.95
2023-04-26T12:31:50.201Z,42.78
2023-04-26T12:34:20.685Z,45.83
2023-04-26T12:36:53.617Z,46.88
2023-04-26T12:39:25.406Z,46.72
2023-04-26T12:41:56.714Z,48.72
2023-04-26T12:44:30.347Z,48.83
2023-04-26T12:47:04.524Z,51.17
2023-04-26T12:49:34.905Z,49.50
2023-04-26T12:52:05.154Z,51.70
2023-04-26T12:54:37.422Z,48.55
2023-04-26T12:57:08.881Z,47.97
2023-04-26T12:59:39.392Z,47.38
2023-04-26T13:02:11.753Z,47.33
2023-04-26T13:04:43.589Z,47.47
2023-04-26T13:07:15.263Z,51.90
2023-04-26T13:09:45.416Z,48.78
2023-04-26T13:12:15.949Z,52.08
2023-04-26T13:14:46.245Z,53.70
2023-04-26T13:17:16.693Z,55.22
2023-04-26T13:19:47.972Z,59.42
2023-04-26T13:22:18.878Z,57.40
2023-04-26T13:24:49.560Z,55.58
2023-04-26T13:27:20.331Z,58.15
2023-04-26T13:29:51.325Z,55.38
2023-04-26T13:32:21.983Z,55.90
2023-04-26T13:34:55.003Z,55.85
2023-04-26T13:37:25.515Z,53.40
2023-04-26T13:39:56.132Z,53.88
2023-04-26T13:42:26.510Z,55.25
2023-04-26T13:44:56.921Z,55.25
2023-04-26T13:47:29.136Z,56.05
2023-04-26T13:49:59.534Z,53.20
2023-04-26T13:52:29.860Z,58.22
2023-04-26T13:55:00.069Z,60.33
2023-04-26T13:57:30.296Z,63.35
2023-04-26T14:00:01.211Z,63.08
2023-04-26T14:02:31.758Z,65.15
2023-04-26T14:05:05.170Z,63.58
2023-04-26T14:07:35.729Z,62.10
2023-04-26T14:10:06.486Z,62.03
2023-04-26T14:12:38.565Z,66.40
2023-04-26T14:15:09.858Z,66.65
2023-04-26T14:17:40.681Z,67.90
2023-04-26T14:20:12.623Z,69.95
2023-04-26T14:22:46.510Z,68.90
2023-04-26T14:25:17.050Z,68.15
2023-04-26T14:27:47.670Z,74.60
2023-04-26T14:30:33.847Z,76.60
2023-04-26T14:33:04.629Z,71.55
2023-04-26T14:35:35.285Z,74.70
2023-04-26T14:38:06.808Z,77.20
2023-04-26T14:40:38.837Z,74.10
2023-04-26T14:43:10.121Z,78.28
2023-04-26T14:45:49.156Z,76.55
2023-04-26T14:48:20.718Z,78.72
2023-04-26T14:50:51.518Z,81.60
2023-04-26T14:53:22.287Z,77.05
2023-04-26T14:56:11.225Z,75.82
2023-04-26T14:58:41.753Z,76.22
2023-04-26T15:01:12.486Z,77.40
2023-04-26T15:03:43.886Z,74.25
2023-04-26T15:06:33.034Z,75.28
2023-04-26T15:09:03.626Z,73.30
2023-04-26T15:11:41.258Z,72.38
2023-04-26T15:14:12.218Z,73.43
2023-04-26T15:16:47.010Z,72.07
2023-04-26T15:19:18.466Z,72.22
2023-04-26T15:21:52.700Z,69.50
2023-04-26T15:24:23.915Z,70.50
2023-04-26T15:26:54.556Z,68.32
2023-04-26T15:29:24.899Z,64.68
2023-04-26T15:31:55.147Z,67.38
2023-04-26T15:34:26.832Z,65.63
2023-04-26T15:36:57.556Z,66.57
2023-04-26T15:39:28.450Z,71.38
2023-04-26T15:41:59.596Z,70.20
2023-04-26T15:44:30.206Z,70.55
2023-04-26T15:47:05.351Z,67.45
2023-04-26T15:49:36.024Z,67.25
2023-04-26T15:52:07.059Z,69.60
2023-04-26T15:54:40.004Z,68.70
2023-04-26T15:57:14.513Z,69.95
2023-04-26T15:59:45.384Z,70.47
2023-04-26T16:02:16.398Z,75.03
2023-04-26T16:04:47.989Z,74.72
2023-04-26T16:07:18.509Z,72.53
2023-04-26T16:09:52.367Z,72.50
2023-04-26T16:12:22.840Z,71.70
2023-04-26T16:14:53.769Z,72.78
2023-04-26T16:17:25.215Z,71.57
2023-04-26T16:19:55.959Z,72.68
2023-04-26T16:22:26.151Z,71.95
2023-04-26T16:27:28.610Z,71.18
2023-04-26T16:29:59.200Z,74.28
2023-04-26T16:32:29.276Z,73.25
2023-04-26T16:34:59.296Z,75.30
2023-04-26T16:37:30.253Z,75.93
2023-04-26T16:40:01.127Z,72.18
2023-04-26T16:42:33.391Z,72.82
2023-04-26T16:45:03.456Z,70.72
2023-04-26T16:47:36.376Z,71.32
2023-04-26T16:50:09.684Z,68.18
2023-04-26T16:52:42.160Z,67.95
2023-04-26T16:55:13.071Z,67.03
2023-04-26T16:57:43.683Z,64.70
2023-04-26T17:00:17.188Z,69.80
2023-04-26T17:02:47.426Z,68.65
2023-04-26T17:05:21.769Z,69.47
2023-04-26T17:07:52.640Z,73.68
2023-04-26T17:10:28.468Z,72.05
2023-04-26T17:13:01.896Z,72.32
2023-04-26T17:15:33.287Z,72.93
2023-04-26T17:18:04.766Z,71.80
2023-04-26T17:20:36.036Z,73.53
2023-04-26T17:23:07.345Z,70.90
2023-04-26T17:25:37.715Z,72.43
2023-04-26T17:28:08.249Z,76.40
2023-04-26T17:30:38.413Z,71.35
2023-04-26T17:35:39.838Z,71.65
2023-04-26T17:40:50.176Z,68.30
2023-04-26T17:43:20.872Z,67.93
2023-04-26T17:45:53.270Z,66.35
2023-04-26T17:48:23.653Z,64.07
2023-04-26T17:50:54.550Z,67.38
2023-04-26T17:53:24.485Z,64.25
2023-04-26T17:55:54.920Z,64.88
2023-04-26T17:58:25.029Z,65.45
2023-04-26T18:00:55.464Z,59.58
2023-04-26T18:03:26.822Z,63.92
2023-04-26T18:05:57.999Z,63.72
2023-04-26T18:08:28.622Z,62.88
2023-04-26T18:10:59.697Z,65.72
2023-04-26T18:13:30.036Z,65.15
2023-04-26T18:16:00.087Z,62.72
2023-04-26T18:18:30.218Z,62.38
2023-04-26T18:21:01.284Z,65.40
2023-04-26T18:23:31.616Z,66.57
2023-04-26T18:26:01.752Z,65.35
2023-04-26T18:28:34.682Z,64.05
2023-04-26T18:31:04.697Z,67.82
2023-04-26T18:33:34.980Z,67.40
2023-04-26T18:38:38.585Z,65.72
2023-04-26T18:41:08.632Z,64.22
2023-04-26T18:43:38.714Z,66.60
2023-04-26T18:46:09.157Z,66.28
2023-04-26T18:48:39.501Z,66.00
2023-04-26T18:53:38.779Z,65.50
2023-04-26T18:56:09.002Z,69.72
2023-04-26T19:01:08.659Z,75.20
2023-04-26T19:03:38.965Z,73.80
2023-04-26T19:08:41.240Z,76.70
2023-04-26T19:11:12.922Z,75.05
2023-04-26T19:13:43.832Z,72.45
2023-04-26T19:16:14.308Z,71.95
2023-04-26T19:18:46.245Z,71.68
2023-04-26T19:21:16.376Z,72.80
2023-04-26T19:23:46.885Z,73.45
2023-04-26T19:26:18.192Z,74.75
2023-04-26T19:28:48.361Z,104.97
2023-04-26T19:31:18.570Z,85.05
2023-04-26T19:36:19.908Z,71.00
2023-04-26T19:38:50.213Z,69.97
2023-04-26T19:43:49.419Z,69.60
2023-04-26T19:46:22.699Z,70.95
2023-04-26T19:48:53.289Z,81.40
2023-04-26T19:51:23.722Z,72.35
2023-04-26T19:53:53.830Z,70.28
2023-04-26T19:56:24.867Z,70.35
2023-04-26T19:58:54.936Z,70.22
2023-04-26T20:01:26.013Z,73.18
2023-04-26T20:03:59.297Z,74.22
2023-04-26T20:06:29.778Z,70.53
2023-04-26T20:09:01.111Z,72.47
2023-04-26T20:11:31.177Z,70.80
2023-04-26T20:14:01.048Z,69.63
2023-04-26T20:16:31.011Z,70.13
2023-04-26T20:19:01.654Z,74.72
2023-04-26T20:21:31.901Z,74.38
2023-04-26T20:26:31.228Z,75.43
2023-04-26T20:29:01.145Z,71.40
2023-04-26T20:31:33.076Z,72.90
2023-04-26T20:34:03.030Z,72.53
2023-04-26T20:36:32.926Z,70.97
2023-04-26T20:39:03.172Z,72.15
2023-04-26T20:41:33.482Z,74.63
2023-04-26T20:46:34.089Z,70.13
2023-04-26T20:49:07.262Z,71.60
2023-04-26T20:51:37.786Z,71.55
2023-04-26T20:56:38.336Z,74.10
2023-04-26T21:01:41.962Z,71.40
2023-04-26T21:04:13.578Z,77.45
2023-04-26T21:06:43.943Z,74.55
2023-04-26T21:09:15.107Z,74.75
2023-04-26T21:11:45.287Z,76.15
2023-04-26T21:14:15.361Z,76.38
2023-04-26T21:16:45.581Z,80.75
2023-04-26T21:19:15.668Z,83.55
2023-04-26T21:21:46.451Z,80.80
2023-04-26T21:24:16.732Z,80.35
2023-04-26T21:29:16.268Z,77.63
2023-04-26T21:31:49.537Z,76.80
2023-04-26T21:34:19.461Z,75.18
2023-04-26T21:36:49.460Z,74.68
2023-04-26T21:39:19.942Z,76.70
2023-04-26T21:41:49.809Z,76.88
2023-04-26T21:44:20.080Z,73.97
2023-04-26T21:46:49.949Z,75.38
2023-04-26T21:49:19.777Z,77.20
2023-04-26T21:51:52.009Z,79.82
2023-04-26T21:54:22.174Z,74.82
2023-04-26T21:56:52.216Z,80.07
2023-04-26T21:59:22.327Z,76.80
2023-04-26T22:01:52.605Z,75.55
2023-04-26T22:04:24.589Z,76.47
2023-04-26T22:06:54.554Z,76.55
2023-04-26T22:09:24.581Z,77.50
2023-04-26T22:11:54.789Z,74.65
2023-04-26T22:14:25.015Z,78.53
2023-04-26T22:16:55.074Z,76.43
2023-04-26T22:19:25.211Z,77.45
2023-04-26T22:21:56.362Z,76.90
2023-04-26T22:24:26.490Z,77.90
2023-04-26T22:26:56.467Z,76.75
2023-04-26T22:29:26.456Z,75.93
2023-04-26T22:31:56.743Z,75.72
2023-04-26T22:34:26.598Z,74.18
2023-04-26T22:37:09.600Z,73.32
2023-04-26T22:39:47.909Z,75.82
2023-04-26T22:44:48.388Z,79.57
2023-04-26T22:47:20.130Z,77.43
2023-04-26T22:49:50.281Z,76.53
2023-04-26T22:52:30.397Z,75.35
2023-04-26T22:55:01.683Z,78.85
2023-04-26T22:57:32.722Z,77.65
2023-04-26T23:00:02.764Z,81.90
2023-04-26T23:02:32.913Z,81.40
2023-04-26T23:05:03.270Z,79.25
2023-04-26T23:10:02.731Z,78.50
2023-04-26T23:12:33.098Z,81.15
2023-04-26T23:15:03.430Z,78.38
2023-04-26T23:20:04.139Z,80.25
2023-04-26T23:22:34.065Z,84.82
2023-04-26T23:25:04.040Z,82.82
2023-04-26T23:27:33.978Z,83.00
2023-04-26T23:30:08.105Z,83.43
2023-04-26T23:32:38.188Z,79.47
2023-04-26T23:35:09.269Z,84.03
2023-04-26T23:37:39.323Z,87.88
2023-04-26T23:40:12.332Z,89.97
2023-04-26T23:42:42.224Z,89.78
2023-04-26T23:45:13.198Z,92.00
2023-04-26T23:47:43.135Z,96.32
2023-04-26T23:50:13.536Z,93.68
2023-04-26T23:52:43.758Z,93.90
2023-04-26T23:55:13.986Z,90.45
2023-04-26T23:57:44.056Z,93.97
